Avon, Utah
Current Conditions -  °F | °C
As of 2:15 AM on Thursday 27 Nov 2014 (Local Time) from KBMC Reporting Station
Clear Clear  
Wind Chill: 39°   Ceiling: Unl
Heat Index: 43°   Visibility: 10mi
Dew Point: 28°   Wind: 7mph
Humidity: 55%   Direction: 290°WNW
Pressure: 30.33"   Gusts: NA
Location:  41.5397°N, 111.856°W
Report Text: KBMC 270915Z AUTO 29006KT 10SM CLR 06/M02 A3033 RMK AO1 T00611024
Loading
Personal Weather Stations






























Interactive Weather Map New forecast layout! Learn more

10-Day Weather Forecast

Advertisements
Track Severe Weather on mobile